createdAt,value
2019-05-12T00:01:28.664Z,61.26
2019-05-12T00:04:03.733Z,61.30
2019-05-12T00:06:34.809Z,61.29
2019-05-12T00:09:09.498Z,61.34
2019-05-12T00:11:41.287Z,61.38
2019-05-12T00:14:14.924Z,61.40
2019-05-12T00:16:48.955Z,61.42
2019-05-12T00:19:20.381Z,61.43
2019-05-12T00:24:52.143Z,61.48
2019-05-12T00:27:24.337Z,61.49
2019-05-12T00:29:57.853Z,61.49
2019-05-12T00:32:31.069Z,61.51
2019-05-12T00:35:02.909Z,61.50
2019-05-12T00:37:38.215Z,61.52
2019-05-12T00:46:42.769Z,61.56
2019-05-12T00:49:18.460Z,61.57
2019-05-12T00:51:50.979Z,61.60
2019-05-12T00:54:25.012Z,61.64
2019-05-12T00:56:58.672Z,61.66
2019-05-12T00:59:32.820Z,61.69
2019-05-12T01:02:04.855Z,61.67
2019-05-12T01:04:39.151Z,61.67
2019-05-12T01:07:12.227Z,61.68
2019-05-12T01:09:44.413Z,61.67
2019-05-12T01:12:18.133Z,61.69
2019-05-12T01:14:50.030Z,61.71
2019-05-12T01:17:24.766Z,61.72
2019-05-12T01:19:58.404Z,61.71
2019-05-12T01:22:30.300Z,61.72
2019-05-12T01:25:08.363Z,61.73
2019-05-12T01:27:40.914Z,61.72
2019-05-12T01:30:13.979Z,61.73
2019-05-12T01:32:48.390Z,61.69
2019-05-12T01:35:20.145Z,61.70
2019-05-12T01:37:52.537Z,61.69
2019-05-12T01:40:28.639Z,61.73
2019-05-12T01:42:59.402Z,61.70
2019-05-12T01:45:33.609Z,61.69
2019-05-12T01:48:08.680Z,61.71
2019-05-12T01:51:00.845Z,61.72
2019-05-12T01:53:34.034Z,61.71
2019-05-12T01:56:07.934Z,61.72
2019-05-12T01:58:40.893Z,61.68
2019-05-12T02:01:13.981Z,61.68
2019-05-12T02:03:48.032Z,61.69
2019-05-12T02:06:21.724Z,61.69
2019-05-12T02:09:05.429Z,61.70
2019-05-12T02:11:37.998Z,61.70
2019-05-12T02:14:10.385Z,61.67
2019-05-12T02:19:28.278Z,61.70
2019-05-12T02:22:02.685Z,61.68
2019-05-12T02:24:34.614Z,61.66
2019-05-12T02:27:08.836Z,61.67
2019-05-12T02:29:40.589Z,61.62
2019-05-12T02:32:14.094Z,61.63
2019-05-12T02:34:45.893Z,61.65
2019-05-12T02:37:17.432Z,61.64
2019-05-12T02:39:55.589Z,61.64
2019-05-12T02:42:29.000Z,61.64
2019-05-12T02:45:09.542Z,61.62
2019-05-12T02:47:45.346Z,61.63
2019-05-12T02:50:20.854Z,61.63
2019-05-12T02:52:54.624Z,61.63
2019-05-12T02:55:30.200Z,61.65
2019-05-12T02:58:05.007Z,61.62
2019-05-12T03:00:36.824Z,61.66
2019-05-12T03:03:14.733Z,61.66
2019-05-12T03:05:48.753Z,61.64
2019-05-12T03:08:25.713Z,61.62
2019-05-12T03:10:59.534Z,61.63
2019-05-12T03:13:35.884Z,61.64
2019-05-12T03:16:08.824Z,61.65
2019-05-12T03:18:40.650Z,61.64
2019-05-12T03:21:15.167Z,61.63
2019-05-12T03:23:46.270Z,61.64
2019-05-12T03:26:19.660Z,61.64
2019-05-12T03:28:55.556Z,61.61
2019-05-12T03:31:31.239Z,61.64
2019-05-12T03:34:00.958Z,61.67
2019-05-12T03:36:41.160Z,61.64
2019-05-12T03:39:10.985Z,61.67
2019-05-12T03:41:45.585Z,61.66
2019-05-12T03:44:17.738Z,61.65
2019-05-12T03:46:50.777Z,61.69
2019-05-12T03:49:24.409Z,61.66
2019-05-12T03:51:55.899Z,61.66
2019-05-12T03:54:30.696Z,61.67
2019-05-12T03:57:04.475Z,61.68
2019-05-12T03:59:35.931Z,61.71
2019-05-12T04:02:11.055Z,61.71
2019-05-12T04:04:45.358Z,61.69
2019-05-12T04:07:16.828Z,61.69
2019-05-12T04:09:50.667Z,61.70
2019-05-12T04:12:25.406Z,61.73
2019-05-12T04:14:57.443Z,61.70
2019-05-12T04:17:29.323Z,61.70
2019-05-12T04:20:04.786Z,61.72
2019-05-12T04:22:39.722Z,61.72
2019-05-12T04:25:14.585Z,61.72
2019-05-12T04:27:48.052Z,61.74
2019-05-12T04:30:20.590Z,61.71
2019-05-12T04:32:55.295Z,61.73
2019-05-12T04:35:29.634Z,61.70
2019-05-12T04:38:04.387Z,61.74
2019-05-12T04:40:36.320Z,61.70
2019-05-12T04:43:09.288Z,61.70
2019-05-12T04:45:41.272Z,61.69
2019-05-12T04:48:15.634Z,61.70
2019-05-12T04:50:47.801Z,61.70
2019-05-12T04:53:19.544Z,61.70
2019-05-12T04:56:07.580Z,61.70
2019-05-12T04:58:25.541Z,61.68
2019-05-12T05:00:57.171Z,61.69
2019-05-12T05:03:28.896Z,61.67
2019-05-12T05:06:04.245Z,61.61
2019-05-12T05:08:34.962Z,61.59
2019-05-12T05:11:06.652Z,61.62
2019-05-12T05:13:50.669Z,61.58
2019-05-12T05:16:24.984Z,61.59
2019-05-12T05:18:59.918Z,61.58
2019-05-12T05:21:34.207Z,61.57
2019-05-12T05:24:05.110Z,61.56
2019-05-12T05:26:37.429Z,61.54
2019-05-12T05:29:09.036Z,61.51
2019-05-12T05:31:46.061Z,61.49
2019-05-12T05:34:20.535Z,61.51
2019-05-12T05:36:59.460Z,61.50
2019-05-12T05:39:25.582Z,61.48
2019-05-12T05:41:56.978Z,61.48
2019-05-12T05:44:36.250Z,61.50
2019-05-12T05:47:04.367Z,61.53
2019-05-12T05:49:38.359Z,61.56
2019-05-12T05:52:10.011Z,61.54
2019-05-12T05:54:44.046Z,61.54
2019-05-12T05:57:20.076Z,61.55
2019-05-12T05:59:53.775Z,61.56
2019-05-12T06:02:31.981Z,61.57
2019-05-12T06:05:04.364Z,61.57
2019-05-12T06:07:39.223Z,61.52
2019-05-12T06:10:17.400Z,61.55
2019-05-12T06:12:51.792Z,61.54
2019-05-12T06:15:24.153Z,61.54
2019-05-12T06:18:23.956Z,61.54
2019-05-12T06:21:00.041Z,61.63
2019-05-12T06:23:34.917Z,59.78
2019-05-12T06:26:07.888Z,58.20
2019-05-12T06:28:48.208Z,57.40
2019-05-12T06:31:29.986Z,57.11
2019-05-12T06:34:15.360Z,57.28
2019-05-12T06:36:50.655Z,58.42
2019-05-12T06:39:23.624Z,59.14
2019-05-12T06:42:11.636Z,59.51
2019-05-12T06:44:33.457Z,59.68
2019-05-12T06:47:08.199Z,58.45
2019-05-12T06:49:43.933Z,53.92
2019-05-12T06:52:15.856Z,54.96
2019-05-12T06:54:55.286Z,56.34
2019-05-12T06:57:29.496Z,57.20
2019-05-12T07:00:11.006Z,57.84
2019-05-12T07:02:49.988Z,58.18
2019-05-12T07:05:19.344Z,58.72
2019-05-12T07:07:53.430Z,59.28
2019-05-12T07:10:36.651Z,59.71
2019-05-12T07:13:02.580Z,60.01
2019-05-12T07:15:35.594Z,60.25
2019-05-12T07:18:07.651Z,60.62
2019-05-12T07:20:43.523Z,61.06
2019-05-12T07:23:19.586Z,61.67
2019-05-12T07:25:50.200Z,62.19
2019-05-12T07:28:23.751Z,62.73
2019-05-12T07:30:59.292Z,63.08
2019-05-12T07:33:41.459Z,63.39
2019-05-12T07:36:13.809Z,63.46
2019-05-12T07:38:48.037Z,63.38
2019-05-12T07:41:24.001Z,63.40
2019-05-12T07:44:00.957Z,63.48
2019-05-12T07:46:34.427Z,63.65
2019-05-12T07:49:07.396Z,63.50
2019-05-12T07:51:40.784Z,63.44
2019-05-12T07:54:16.949Z,63.34
2019-05-12T07:56:54.002Z,63.32
2019-05-12T07:59:26.636Z,63.27
2019-05-12T08:01:59.737Z,63.22
2019-05-12T08:04:39.555Z,63.16
2019-05-12T08:07:28.314Z,63.26
2019-05-12T08:09:57.523Z,63.37
2019-05-12T08:12:29.994Z,63.47
2019-05-12T08:15:09.312Z,63.46
2019-05-12T08:17:40.768Z,63.43
2019-05-12T08:20:14.116Z,63.44
2019-05-12T08:22:47.346Z,63.48
2019-05-12T08:25:27.106Z,63.50
2019-05-12T08:28:04.196Z,63.51
2019-05-12T08:30:40.406Z,63.52
2019-05-12T08:33:11.299Z,63.51
2019-05-12T08:35:43.832Z,63.57
2019-05-12T08:38:18.009Z,63.98
2019-05-12T08:40:51.277Z,64.50
2019-05-12T08:43:24.280Z,64.55
2019-05-12T08:46:00.309Z,64.25
2019-05-12T08:48:29.856Z,63.92
2019-05-12T08:51:05.295Z,63.64
2019-05-12T08:56:35.004Z,63.36
2019-05-12T08:59:09.603Z,63.33
2019-05-12T09:01:40.521Z,63.28
2019-05-12T09:04:17.453Z,62.47
2019-05-12T09:06:50.138Z,62.61
2019-05-12T09:09:23.681Z,62.83
2019-05-12T09:11:55.742Z,62.83
2019-05-12T09:14:33.526Z,62.86
2019-05-12T09:17:07.380Z,62.76
2019-05-12T09:19:40.801Z,62.79
2019-05-12T09:22:16.850Z,62.81
2019-05-12T09:24:46.990Z,62.94
2019-05-12T09:27:19.440Z,63.21
2019-05-12T09:29:54.026Z,61.59
2019-05-12T09:32:50.347Z,61.79
2019-05-12T09:35:21.024Z,61.90
2019-05-12T09:37:53.511Z,62.23
2019-05-12T09:40:45.672Z,62.41
2019-05-12T09:43:20.001Z,62.79
2019-05-12T09:45:56.101Z,62.77
2019-05-12T09:48:26.158Z,61.92
2019-05-12T09:51:04.256Z,60.87
2019-05-12T09:53:36.011Z,61.49
2019-05-12T09:56:10.188Z,61.61
2019-05-12T09:58:58.025Z,61.66
2019-05-12T10:01:18.491Z,61.91
2019-05-12T10:03:50.033Z,62.00
2019-05-12T10:06:24.691Z,62.28
2019-05-12T10:08:57.550Z,62.52
2019-05-12T10:11:29.821Z,62.73
2019-05-12T10:14:08.587Z,63.31
2019-05-12T10:16:39.574Z,63.74
2019-05-12T10:19:10.039Z,64.21
2019-05-12T10:21:44.054Z,64.57
2019-05-12T10:24:18.514Z,64.55
2019-05-12T10:26:51.255Z,64.40
2019-05-12T10:29:24.416Z,64.52
2019-05-12T10:31:55.801Z,64.55
2019-05-12T10:34:34.217Z,64.70
2019-05-12T10:37:04.159Z,64.82
2019-05-12T10:39:38.646Z,64.75
2019-05-12T10:42:10.491Z,64.81
2019-05-12T10:44:44.806Z,64.77
2019-05-12T10:47:18.109Z,65.08
2019-05-12T10:49:49.665Z,65.57
2019-05-12T10:52:24.277Z,65.79
2019-05-12T10:54:56.952Z,66.03
2019-05-12T10:57:28.530Z,66.37
2019-05-12T11:00:03.955Z,66.83
2019-05-12T11:02:34.768Z,67.46
2019-05-12T11:05:18.415Z,68.25
2019-05-12T11:07:43.866Z,68.88
2019-05-12T11:10:20.105Z,69.14
2019-05-12T11:12:51.418Z,69.26
2019-05-12T11:15:25.710Z,69.07
2019-05-12T11:17:57.020Z,69.12
2019-05-12T11:20:29.289Z,68.90
2019-05-12T11:23:03.472Z,68.62
2019-05-12T11:25:35.091Z,68.26
2019-05-12T11:28:06.797Z,68.10
2019-05-12T11:30:38.225Z,67.95
2019-05-12T11:33:09.756Z,67.73
2019-05-12T11:36:20.497Z,67.71
2019-05-12T11:44:37.676Z,68.00
2019-05-12T11:47:17.001Z,67.87
2019-05-12T11:49:44.150Z,67.81
2019-05-12T11:52:19.127Z,67.73
2019-05-12T11:54:54.001Z,67.51
2019-05-12T11:57:30.098Z,67.41
2019-05-12T12:00:02.255Z,67.29
2019-05-12T12:02:34.213Z,67.12
2019-05-12T12:05:13.853Z,67.22
2019-05-12T12:07:51.403Z,67.22
2019-05-12T12:10:19.552Z,67.11
2019-05-12T12:12:50.681Z,67.02
2019-05-12T12:15:26.423Z,66.94
2019-05-12T12:17:55.304Z,66.85
2019-05-12T12:20:27.053Z,66.73
2019-05-12T12:23:05.052Z,66.65
2019-05-12T12:25:34.220Z,66.57
2019-05-12T12:28:06.229Z,66.43
2019-05-12T12:30:38.004Z,66.34
2019-05-12T12:33:09.281Z,66.22
2019-05-12T12:35:44.346Z,66.17
2019-05-12T12:38:17.254Z,66.12
2019-05-12T12:40:48.729Z,66.06
2019-05-12T12:43:20.257Z,65.95
2019-05-12T12:45:53.061Z,65.85
2019-05-12T12:48:29.609Z,65.69
2019-05-12T12:50:58.218Z,65.59
2019-05-12T12:53:34.371Z,65.57
2019-05-12T12:56:05.613Z,65.49
2019-05-12T12:58:37.178Z,65.49
2019-05-12T13:01:14.160Z,65.45
2019-05-12T13:03:44.276Z,65.39
2019-05-12T13:06:17.339Z,65.43
2019-05-12T13:08:50.159Z,65.50
2019-05-12T13:11:30.528Z,65.45
2019-05-12T13:13:54.607Z,65.42
2019-05-12T13:16:27.263Z,65.35
2019-05-12T13:19:06.193Z,65.28
2019-05-12T13:21:33.553Z,65.18
2019-05-12T13:24:06.024Z,65.09
2019-05-12T13:26:37.264Z,65.04
2019-05-12T13:29:10.671Z,65.02
2019-05-12T13:31:46.406Z,64.96
2019-05-12T13:34:16.935Z,64.91
2019-05-12T13:36:48.491Z,64.88
2019-05-12T13:39:20.132Z,64.84
2019-05-12T13:41:56.261Z,64.79
2019-05-12T13:44:24.606Z,64.87
2019-05-12T13:46:58.810Z,64.77
2019-05-12T13:49:30.046Z,64.72
2019-05-12T13:52:04.211Z,64.74
2019-05-12T13:54:36.046Z,64.75
2019-05-12T13:57:11.935Z,64.72
2019-05-12T13:59:43.630Z,64.26
2019-05-12T14:02:22.168Z,64.13
2019-05-12T14:04:48.191Z,63.83
2019-05-12T14:07:20.246Z,63.79
2019-05-12T14:09:51.958Z,63.96
2019-05-12T14:12:23.321Z,63.64
2019-05-12T14:14:55.324Z,63.51
2019-05-12T14:17:47.790Z,63.61
2019-05-12T14:20:21.126Z,63.72
2019-05-12T14:22:53.792Z,63.80
2019-05-12T14:25:30.999Z,63.68
2019-05-12T14:28:14.315Z,63.55
2019-05-12T14:30:49.803Z,63.61
2019-05-12T14:33:19.937Z,63.67
2019-05-12T14:35:53.735Z,63.66
2019-05-12T14:38:29.574Z,63.67
2019-05-12T14:41:09.654Z,63.66
2019-05-12T14:43:37.833Z,63.66
2019-05-12T14:46:10.520Z,63.68
2019-05-12T14:48:48.405Z,63.67
2019-05-12T14:51:18.430Z,63.67
2019-05-12T14:53:53.446Z,63.61
2019-05-12T14:56:24.684Z,63.58
2019-05-12T14:59:00.625Z,63.57
2019-05-12T15:01:44.209Z,63.56
2019-05-12T15:04:05.835Z,63.55
2019-05-12T15:06:38.719Z,63.58
2019-05-12T15:09:20.188Z,63.52
2019-05-12T15:11:47.044Z,63.49
2019-05-12T15:14:24.677Z,63.50
2019-05-12T15:17:22.439Z,63.49
2019-05-12T15:19:50.169Z,63.49
2019-05-12T15:22:24.420Z,63.56
2019-05-12T15:24:58.854Z,63.52
2019-05-12T15:27:42.003Z,63.50
2019-05-12T15:30:22.961Z,63.51
2019-05-12T15:32:46.234Z,63.50
2019-05-12T15:35:18.804Z,63.46
2019-05-12T15:37:54.441Z,63.34
2019-05-12T15:40:23.924Z,63.22
2019-05-12T15:43:00.544Z,63.04
2019-05-12T15:45:29.671Z,62.99
2019-05-12T15:48:03.896Z,62.82
2019-05-12T15:50:34.649Z,62.77
2019-05-12T15:53:07.511Z,62.80
2019-05-12T15:55:39.292Z,62.81
2019-05-12T15:58:10.712Z,62.75
2019-05-12T16:00:43.854Z,62.74
2019-05-12T16:03:15.566Z,62.83
2019-05-12T16:05:48.268Z,63.02
2019-05-12T16:08:19.624Z,61.23
2019-05-12T16:10:53.527Z,60.74
2019-05-12T16:13:24.552Z,61.03
2019-05-12T16:16:03.151Z,61.50
2019-05-12T16:18:29.083Z,61.79
2019-05-12T16:21:07.287Z,61.96
2019-05-12T16:23:34.472Z,62.14
2019-05-12T16:26:10.313Z,62.36
2019-05-12T16:28:43.952Z,62.41
2019-05-12T16:31:14.707Z,62.58
2019-05-12T16:33:52.849Z,62.74
2019-05-12T16:36:22.152Z,62.55
2019-05-12T16:38:59.895Z,56.88
2019-05-12T16:41:29.880Z,54.86
